Lukojanov, Russia
Current Conditions -  °F | °C
As of 7:30 AM on Friday 31 Oct 2014 (Local Time) from UWGG Reporting Station
Broken Clouds Broken Clouds  
Wind Chill: 36°   Ceiling: 10000
Heat Index: 36°   Visibility: 4mi
Dew Point: 25°   Wind: 2mph
Humidity: 65%   Direction: 220°SW
Pressure: 30"   Gusts: NA
Location:  55.04°N, 44.49°E
Report Text: UWGG 310430Z 22001MPS 6000 BKN100 BKN230 02/M04 Q1016 NOSIG36090060 RMK QFE755
Loading
Personal Weather Stations






























Interactive Weather Map
Tropical Storm Tracking
New forecast layout! Learn more

10-Day Weather Forecast

Advertisements
Track Severe Weather on mobile